Last 7 Days

Abernathy 1 (AB1)

Hourly Data | America/Los_Angeles
as of 12/9/18 2:37 PM PST
Date Time Temp (°F) RH (%) Dew Pt (°F) Wind Spd (mph) Wind Dir (°) Wind Gust (mph) Wind Gst Dir (°) Latest Rain (In) Solar Rad Tot Hr (Cal/cm2) Daily Rain (In) Daily Min Temp (°F) Daily Max Temp (°F) Day
12/9/18 1000 43.6 98 43.0 2.1 NNW | 345 4.9 NW | 326 0.00 2 0.00 38.9 44.7 12/9/18
12/9/18 0900 42.8 98 42.2 2.5 NNW | 334 5.4 NNW | 337 0.00 0 0.00 38.9 43.2 12/9/18
12/9/18 0800 42.4 98 41.9 1.5 NNW | 342 3.6 N | 350 0.00 0 0.00 38.9 43.2 12/9/18
12/9/18 0700 41.8 98 41.3 0.7 NNW | 338 3.4 NNW | 336 0.00 0 0.00 38.9 42.4 12/9/18
12/9/18 0600 41.0 98 40.5 1.6 NNW | 343 4.6 NNW | 338 0.00 0 0.00 38.9 41.8 12/9/18
12/9/18 0500 40.6 98 40.0 2.9 NNW | 346 5.1 NNW | 328 0.00 0 0.00 38.9 41.8 12/9/18
12/9/18 0400 40.4 97 39.7 2.1 NNW | 335 4.6 NNW | 338 0.00 0 0.00 38.9 41.8 12/9/18
12/9/18 0300 40.3 96 39.3 1.2 N | 3 3.1 N | 352 0.00 0 0.00 38.9 41.8 12/9/18
12/9/18 0200 40.1 94 38.5 2.2 ESE | 108 6.3 ESE | 111 0.00 0 0.00 38.9 41.8 12/9/18
12/9/18 0100 40.6 92 38.4 0.5 NNE | 33 2.2 NNW | 336 0.00 0 0.00 39.5 41.8 12/9/18
12/9/18 0000 42.0 91 39.4 0.8 NNW | 340 3.4 NNE | 16 0.00 0 0.00 35.6 60.8 12/8/18
12/8/18 2300 42.6 90 40.0 1.2 NNW | 337 4.6 NNW | 328 0.00 0 0.00 35.6 60.8 12/8/18
12/8/18 2200 42.7 90 39.9 0.1 NNE | 24 2.4 N | 0 0.00 0 0.00 35.6 60.8 12/8/18
12/8/18 2100 44.6 86 40.6 0.1 WNW | 299 2.4 NW | 305 0.00 0 0.00 35.6 60.8 12/8/18
12/8/18 2000 48.9 76 41.6 0.5 N | 356 3.3 ENE | 64 0.00 0 0.00 35.6 60.8 12/8/18
12/8/18 1900 54.0 65 42.5 0.7 E | 92 3.8 ESE | 111 0.00 0 0.00 35.6 60.8 12/8/18
12/8/18 1800 57.7 58 43.0 4.0 E | 84 8.6 ENE | 71 0.00 2 0.00 35.6 60.8 12/8/18
12/8/18 1700 60.1 53 42.7 4.9 ENE | 71 10.3 NE | 46 0.00 15 0.00 35.6 60.8 12/8/18
12/8/18 1600 60.1 52 42.7 6.3 ENE | 65 11.0 E | 84 0.00 25 0.00 35.6 60.8 12/8/18
12/8/18 1500 59.8 53 42.5 7.0 ENE | 59 12.1 ESE | 102 0.00 33 0.00 35.6 60.3 12/8/18
12/8/18 1400 59.1 55 42.7 7.5 ENE | 59 13.8 NE | 48 0.00 38 0.00 35.6 60.1 12/8/18
12/8/18 1300 57.1 62 44.0 4.8 NE | 50 11.5 ENE | 66 0.00 37 0.00 35.6 59.1 12/8/18
12/8/18 1200 51.8 73 43.6 1.9 SW | 234 5.1 SW | 235 0.00 32 0.00 35.6 54.7 12/8/18
12/8/18 1100 47.2 83 42.3 1.0 SSE | 148 3.4 SSE | 166 0.00 24 0.00 35.6 49.9 12/8/18
12/8/18 1000 41.8 96 40.7 0.2 ESE | 108 2.6 ESE | 103 0.00 12 0.00 35.6 45.4 12/8/18
12/8/18 0900 36.6 95 35.4 0.0 N | 0 0.0 WSW | 245 0.00 2 0.00 35.6 42.9 12/8/18
12/8/18 0800 37.2 95 35.9 0.1 WSW | 246 1.7 WSW | 245 0.00 0 0.00 35.8 42.9 12/8/18
12/8/18 0700 36.8 95 35.4 0.2 W | 264 2.1 W | 275 0.00 0 0.00 35.8 42.9 12/8/18
12/8/18 0600 36.4 94 34.9 0.0 NW | 318 1.4 NW | 322 0.00 0 0.00 35.8 42.9 12/8/18
12/8/18 0500 37.3 94 35.6 0.0 N | 0 0.0 NW | 316 0.00 0 0.00 36.0 42.9 12/8/18
12/8/18 0400 38.1 93 36.3 0.0 N | 0 0.0 NW | 316 0.00 0 0.00 37.4 42.9 12/8/18
12/8/18 0300 39.7 93 37.8 0.2 NW | 326 2.4 NNW | 328 0.00 0 0.00 38.2 42.9 12/8/18
12/8/18 0200 40.0 91 37.7 0.1 NW | 313 2.1 WNW | 299 0.00 0 0.00 38.9 42.9 12/8/18
12/8/18 0100 42.1 90 39.5 0.6 NNW | 329 2.9 NNW | 341 0.00 0 0.00 41.0 42.9 12/8/18
12/8/18 0000 42.8 90 40.0 1.0 NNW | 334 4.3 NNW | 334 0.00 0 0.00 38.4 62.1 12/7/18
12/7/18 2300 42.9 89 39.9 0.2 NW | 324 2.2 NW | 324 0.00 0 0.00 38.4 62.1 12/7/18
12/7/18 2200 44.1 88 40.8 0.4 NW | 306 2.9 NW | 305 0.00 0 0.00 38.4 62.1 12/7/18
12/7/18 2100 45.3 86 41.4 0.1 NNW | 330 1.9 NNW | 339 0.00 0 0.00 38.4 62.1 12/7/18
12/7/18 2000 48.2 79 42.1 0.1 NW | 321 2.6 NW | 321 0.00 0 0.00 38.4 62.1 12/7/18
12/7/18 1900 54.9 64 42.8 0.4 ESE | 105 2.4 ESE | 107 0.00 0 0.00 38.4 62.1 12/7/18
12/7/18 1800 58.3 56 42.9 1.7 SE | 126 4.4 E | 89 0.00 3 0.00 38.4 62.1 12/7/18
12/7/18 1700 60.7 51 42.7 2.4 ESE | 107 7.6 SSE | 154 0.00 15 0.00 38.4 62.1 12/7/18
12/7/18 1600 61.5 51 43.0 2.6 ESE | 105 6.6 E | 95 0.00 25 0.00 38.4 62.1 12/7/18
12/7/18 1500 60.9 50 42.1 3.6 NE | 47 8.1 NE | 37 0.00 33 0.00 38.4 61.6 12/7/18
12/7/18 1400 59.2 55 42.8 2.6 SSE | 164 7.6 SSW | 202 0.00 37 0.00 38.4 61.0 12/7/18
12/7/18 1300 55.6 64 43.5 2.3 S | 182 5.4 S | 181 0.00 38 0.00 38.4 57.6 12/7/18
12/7/18 1200 50.6 73 42.4 1.8 SW | 226 4.8 SSE | 153 0.00 28 0.00 38.4 54.1 12/7/18
12/7/18 1100 46.9 79 40.8 1.2 SSE | 168 4.4 SSW | 200 0.00 22 0.00 38.4 49.3 12/7/18
12/7/18 1000 43.1 87 39.6 1.6 ESE | 120 5.9 ESE | 107 0.00 8 0.00 38.4 44.3 12/7/18
12/7/18 0900 39.6 92 37.4 0.2 NNE | 19 2.1 NE | 54 0.00 3 0.00 38.4 42.5 12/7/18
12/7/18 0800 40.2 91 37.6 1.5 WSW | 257 3.8 W | 271 0.00 0 0.00 38.6 42.5 12/7/18
12/7/18 0700 41.4 91 38.9 1.2 NNW | 330 4.3 NNW | 340 0.00 0 0.00 38.6 42.5 12/7/18
12/7/18 0600 40.0 92 38.0 0.9 NW | 324 3.4 NW | 314 0.00 0 0.00 38.6 42.0 12/7/18
12/7/18 0500 39.9 92 37.7 0.1 NW | 322 2.1 NW | 313 0.00 0 0.00 38.6 42.0 12/7/18
12/7/18 0400 39.8 93 37.9 0.8 NW | 304 3.6 NW | 319 0.00 0 0.00 38.6 42.0 12/7/18
12/7/18 0300 39.9 92 37.8 0.4 WNW | 291 2.7 NW | 306 0.00 0 0.00 38.9 42.0 12/7/18
12/7/18 0200 41.1 91 38.6 0.2 WNW | 298 2.4 NW | 308 0.00 0 0.00 40.1 42.0 12/7/18
12/7/18 0100 41.4 90 38.8 0.1 NNW | 334 1.7 NNW | 343 0.00 0 0.00 40.7 42.0 12/7/18
12/7/18 0000 42.8 88 39.5 0.6 WSW | 253 2.7 WSW | 253 0.00 0 0.00 41.5 65.1 12/6/18
12/6/18 2300 45.0 86 40.9 0.7 WNW | 300 3.1 W | 276 0.00 0 0.00 42.1 65.1 12/6/18
12/6/18 2200 45.2 85 41.1 0.4 NW | 308 3.4 NW | 323 0.00 0 0.00 42.1 65.1 12/6/18
12/6/18 2100 48.5 79 42.2 0.5 W | 280 2.7 NNW | 338 0.00 0 0.00 42.1 65.1 12/6/18
12/6/18 2000 51.6 72 42.8 1.9 SSW | 203 4.3 SSW | 211 0.00 0 0.00 42.1 65.1 12/6/18
12/6/18 1900 56.2 57 41.0 1.2 E | 90 6.4 NE | 41 0.00 0 0.00 42.1 65.1 12/6/18
12/6/18 1800 59.8 50 40.9 4.7 NE | 56 9.0 ENE | 70 0.00 3 0.00 42.1 65.1 12/6/18
12/6/18 1700 62.9 44 40.7 3.7 ENE | 57 7.8 E | 96 0.00 14 0.00 42.1 65.1 12/6/18
12/6/18 1600 64.4 41 40.4 2.4 ENE | 74 6.8 E | 91 0.00 25 0.00 42.1 65.1 12/6/18
12/6/18 1500 63.9 42 40.3 1.7 NNE | 14 5.3 NNW | 332 0.00 33 0.00 42.1 64.9 12/6/18
12/6/18 1400 62.8 43 40.0 1.4 NE | 48 8.1 ENE | 60 0.00 37 0.00 42.1 64.4 12/6/18
12/6/18 1300 61.1 48 41.0 1.4 S | 186 5.3 SSW | 212 0.00 37 0.00 42.1 63.4 12/6/18
12/6/18 1200 57.5 56 42.0 3.3 SSW | 198 6.3 SSW | 198 0.00 33 0.00 42.1 59.5 12/6/18
12/6/18 1100 54.2 70 44.4 2.9 S | 190 6.9 SSW | 193 0.00 25 0.00 42.1 55.9 12/6/18
12/6/18 1000 49.3 82 44.1 0.7 W | 278 3.8 W | 267 0.00 14 0.00 42.1 52.2 12/6/18
12/6/18 0900 43.0 91 40.5 0.2 NW | 319 2.6 NW | 323 0.00 2 0.00 42.1 48.9 12/6/18
12/6/18 0800 44.3 91 41.8 0.3 SSW | 196 2.7 NW | 324 0.00 0 0.00 43.7 48.9 12/6/18
12/6/18 0700 44.2 91 41.7 0.1 NW | 313 2.1 NNW | 330 0.00 0 0.00 43.8 48.9 12/6/18
12/6/18 0600 45.2 90 42.3 0.0 N | 0 0.0 W | 279 0.00 0 0.00 44.3 48.9 12/6/18
12/6/18 0500 45.0 88 41.7 0.2 NW | 308 2.1 NW | 320 0.00 0 0.00 44.7 48.9 12/6/18
12/6/18 0400 46.8 84 42.1 0.6 WSW | 239 3.6 NNW | 337 0.00 0 0.00 44.8 48.9 12/6/18
12/6/18 0300 48.0 82 42.9 1.1 SSW | 198 5.4 SSE | 160 0.00 0 0.00 44.8 48.9 12/6/18
12/6/18 0200 46.6 87 43.0 1.2 SW | 221 4.3 SW | 214 0.00 0 0.00 44.8 48.1 12/6/18
12/6/18 0100 45.5 90 42.7 0.9 SW | 234 3.4 W | 272 0.00 0 0.00 44.8 46.2 12/6/18
12/6/18 0000 43.5 92 41.3 0.5 WSW | 254 4.1 S | 190 0.00 0 0.16 42.9 56.7 12/5/18
12/5/18 2300 43.8 90 41.1 0.3 WSW | 254 2.6 NNW | 331 0.00 0 0.16 43.2 56.7 12/5/18
12/5/18 2200 45.3 88 41.9 0.6 WSW | 254 2.9 WNW | 285 0.00 0 0.16 44.8 56.7 12/5/18
12/5/18 2100 48.1 81 42.6 0.7 NW | 319 3.8 W | 272 0.00 0 0.16 46.0 56.7 12/5/18
12/5/18 2000 50.3 76 43.2 0.5 NNE | 25 4.3 N | 3 0.00 0 0.16 47.5 56.7 12/5/18
12/5/18 1900 51.4 72 42.5 1.5 NE | 41 4.3 NE | 44 0.00 0 0.16 47.5 56.7 12/5/18
12/5/18 1800 54.2 64 42.5 4.3 NNE | 33 9.1 NNE | 16 0.00 1 0.16 47.5 56.7 12/5/18
12/5/18 1700 55.2 64 43.4 5.1 NNE | 28 9.8 NNE | 20 0.00 5 0.16 47.5 56.7 12/5/18
12/5/18 1600 55.2 68 44.7 5.7 NNE | 27 13.3 NNE | 28 0.00 10 0.16 47.5 56.7 12/5/18
12/5/18 1500 55.7 67 44.8 8.5 NNE | 30 14.5 ENE | 68 0.00 23 0.16 47.5 56.7 12/5/18
12/5/18 1400 55.6 65 44.2 7.5 NNE | 32 14.2 NE | 37 0.00 19 0.16 47.5 56.5 12/5/18
12/5/18 1300 54.4 69 44.7 6.6 NNE | 30 13.6 NNE | 23 0.00 19 0.16 47.5 56.2 12/5/18
12/5/18 1200 53.1 72 44.4 6.0 NNE | 29 13.5 NE | 40 0.00 11 0.16 47.5 54.0 12/5/18
12/5/18 1100 52.6 73 44.2 6.7 NNE | 22 14.6 NNE | 20 0.00 9 0.16 47.5 54.0 12/5/18
12/5/18 1000 51.0 77 44.1 7.4 NNE | 20 14.2 NE | 39 0.00 5 0.16 47.5 54.0 12/5/18
12/5/18 0900 49.9 80 44.1 5.3 NNE | 24 13.0 NNE | 22 0.01 0 0.16 47.5 54.0 12/5/18
12/5/18 0800 50.7 76 43.4 7.8 NE | 34 15.2 NE | 38 0.00 0 0.15 47.5 54.0 12/5/18
12/5/18 0700 50.0 79 43.8 8.5 NNE | 32 16.5 NNE | 24 0.00 0 0.15 47.5 54.0 12/5/18
12/5/18 0600 48.9 84 44.4 4.6 NE | 39 9.6 NNE | 30 0.01 0 0.15 47.5 54.0 12/5/18
12/5/18 0500 48.2 87 44.5 3.9 NNE | 17 8.0 NNE | 16 0.02 0 0.14 47.5 54.0 12/5/18
12/5/18 0400 48.0 89 44.8 4.3 NNE | 17 7.8 N | 6 0.08 0 0.12 47.6 54.0 12/5/18
12/5/18 0300 50.2 75 42.6 5.3 ENE | 69 11.1 ENE | 69 0.04 0 0.04 48.5 54.0 12/5/18
12/5/18 0200 50.7 65 39.4 6.3 ENE | 72 12.8 ENE | 61 0.00 0 0.00 49.8 54.0 12/5/18
12/5/18 0100 52.7 54 36.4 3.7 E | 82 8.0 ENE | 65 0.00 0 0.00 50.9 54.0 12/5/18
12/5/18 0000 53.1 52 35.8 4.6 ENE | 63 10.5 NE | 45 0.00 0 0.00 48.2 55.4 12/4/18
12/4/18 2300 51.3 58 37.2 1.3 W | 276 7.4 SSE | 158 0.00 0 0.00 48.2 55.4 12/4/18
12/4/18 2200 50.4 64 38.5 2.4 NNW | 335 7.4 NNE | 22 0.00 0 0.00 48.2 55.4 12/4/18
12/4/18 2100 50.8 64 38.8 1.2 WSW | 248 4.4 WSW | 257 0.00 0 0.00 49.4 55.4 12/4/18
12/4/18 2000 52.2 54 36.3 1.4 NE | 54 4.8 SE | 145 0.00 0 0.00 50.2 55.4 12/4/18
12/4/18 1900 53.2 52 36.3 2.9 NE | 50 7.4 NE | 55 0.00 0 0.00 50.2 55.4 12/4/18
12/4/18 1800 53.8 52 36.5 4.5 NE | 38 9.8 NE | 48 0.00 1 0.00 50.2 55.4 12/4/18
12/4/18 1700 53.8 54 37.3 5.1 NE | 51 11.0 ENE | 64 0.00 3 0.00 50.2 55.4 12/4/18
12/4/18 1600 53.9 53 37.0 5.6 NE | 37 10.6 NNE | 26 0.00 4 0.00 50.2 55.4 12/4/18
12/4/18 1500 54.2 49 35.7 6.9 NE | 40 13.2 NE | 34 0.00 11 0.00 50.2 55.4 12/4/18
12/4/18 1400 54.4 47 34.5 7.1 NE | 48 13.2 NE | 45 0.00 10 0.00 50.2 55.4 12/4/18
12/4/18 1300 54.7 47 34.9 5.7 ENE | 61 10.3 NNE | 26 0.00 11 0.00 50.2 55.4 12/4/18
12/4/18 1200 54.1 48 35.0 6.4 NE | 41 14.5 ENE | 57 0.00 9 0.00 50.2 54.7 12/4/18
12/4/18 1100 52.3 47 32.7 4.8 ENE | 59 12.1 NE | 43 0.00 5 0.00 50.2 53.0 12/4/18
12/4/18 1000 51.2 47 31.7 5.3 NE | 49 10.3 NE | 55 0.00 3 0.00 50.2 52.2 12/4/18
12/4/18 0900 50.9 45 30.6 6.6 NE | 35 15.5 NE | 40 0.00 0 0.00 50.2 52.2 12/4/18
12/4/18 0800 51.4 44 30.2 6.7 NE | 39 13.3 ENE | 62 0.00 0 0.00 50.2 52.2 12/4/18
12/4/18 0700 51.4 42 29.1 6.8 ENE | 60 13.2 NNE | 28 0.00 0 0.00 50.2 52.2 12/4/18
12/4/18 0600 51.1 43 29.5 6.0 NE | 43 13.0 NNE | 22 0.00 0 0.00 50.2 52.2 12/4/18
12/4/18 0500 51.1 41 28.4 5.5 NE | 36 11.3 N | 9 0.00 0 0.00 50.2 52.2 12/4/18
12/4/18 0400 51.4 40 27.8 6.2 NNE | 32 14.3 N | 355 0.00 0 0.00 50.2 52.2 12/4/18
12/4/18 0300 51.3 41 28.2 7.6 NNE | 25 13.6 NNE | 23 0.00 0 0.00 50.2 52.2 12/4/18
12/4/18 0200 51.0 40 27.8 6.7 NE | 44 14.8 N | 11 0.00 0 0.00 50.2 51.5 12/4/18
12/4/18 0100 50.7 41 27.6 5.7 NNE | 32 14.8 N | 0 0.00 0 0.00 50.2 51.2 12/4/18
12/4/18 0000 50.3 43 28.7 8.6 NNE | 25 17.2 NNE | 26 0.00 0 0.00 32.6 55.7 12/3/18
12/3/18 2300 49.7 48 30.8 5.2 NE | 54 15.0 N | 7 0.00 0 0.00 32.6 55.7 12/3/18
12/3/18 2200 49.3 52 32.4 5.1 NE | 48 9.6 ENE | 65 0.00 0 0.00 32.6 55.7 12/3/18
12/3/18 2100 49.4 53 33.1 6.6 NE | 41 11.1 N | 354 0.00 0 0.00 32.6 55.7 12/3/18
12/3/18 2000 49.4 56 34.3 6.0 NE | 47 11.8 NE | 49 0.00 0 0.00 32.6 55.7 12/3/18
12/3/18 1900 50.1 56 35.2 5.9 NE | 41 11.0 NE | 34 0.00 0 0.00 32.6 55.7 12/3/18
12/3/18 1800 51.3 54 35.2 6.1 NE | 35 10.1 NNE | 24 0.00 2 0.00 32.6 55.7 12/3/18
12/3/18 1700 52.9 50 34.6 6.7 NE | 49 11.8 NE | 45 0.00 7 0.00 32.6 55.7 12/3/18
12/3/18 1600 54.1 48 35.0 7.6 NE | 47 12.8 NNE | 33 0.00 17 0.00 32.6 55.7 12/3/18
12/3/18 1500 54.7 48 35.4 7.9 NE | 47 13.2 NE | 54 0.00 30 0.00 32.6 55.7 12/3/18
12/3/18 1400 53.7 50 35.5 7.7 NE | 48 13.2 NE | 41 0.00 32 0.00 32.6 54.8 12/3/18
12/3/18 1300 52.7 52 35.5 8.3 NE | 52 12.8 NE | 55 0.00 32 0.00 32.6 53.2 12/3/18
12/3/18 1200 51.4 57 36.6 6.3 NE | 39 13.5 NE | 47 0.00 35 0.00 32.6 52.6 12/3/18
12/3/18 1100 45.0 79 38.9 1.3 NW | 312 4.1 NNW | 331 0.00 20 0.00 32.6 48.4 12/3/18
12/3/18 1000 40.7 90 37.9 1.3 WSW | 241 3.8 SW | 234 0.00 8 0.00 32.6 42.4 12/3/18
12/3/18 0900 36.1 94 34.6 0.2 W | 264 2.2 W | 263 0.00 3 0.00 32.6 40.8 12/3/18
12/3/18 0800 35.3 94 33.8 0.5 WNW | 287 3.8 WNW | 286 0.00 0 0.00 32.6 40.8 12/3/18
12/3/18 0700 35.5 94 34.0 0.0 WSW | 255 0.6 WSW | 255 0.00 0 0.00 32.6 40.8 12/3/18
12/3/18 0600 34.3 94 32.8 0.2 NNW | 338 2.2 N | 9 0.00 0 0.00 32.6 40.8 12/3/18
12/3/18 0500 33.4 94 31.8 0.2 W | 266 3.4 WSW | 255 0.00 0 0.00 32.6 40.8 12/3/18
12/3/18 0400 34.2 93 32.4 0.4 WSW | 248 2.4 NE | 50 0.00 0 0.00 33.5 40.8 12/3/18
12/3/18 0300 35.3 92 33.2 0.2 WNW | 291 1.7 SW | 231 0.00 0 0.00 34.1 40.8 12/3/18
12/3/18 0200 37.4 91 35.0 0.6 WSW | 247 2.7 W | 261 0.00 0 0.00 36.2 40.8 12/3/18
12/3/18 0100 39.5 90 36.7 0.4 NW | 308 3.4 NNW | 329 0.00 0 0.00 37.6 40.8 12/3/18
12/3/18 0000 39.6 91 37.2 0.3 NW | 325 3.4 NNW | 347 0.00 0 0.00 34.7 58.0 12/2/18
12/2/18 2300 40.0 90 37.4 0.2 NW | 306 2.1 NW | 312 0.00 0 0.00 34.7 58.0 12/2/18
12/2/18 2200 41.0 89 38.0 0.4 NNW | 331 2.7 N | 350 0.00 0 0.00 34.7 58.0 12/2/18
12/2/18 2100 43.2 82 38.2 0.0 SW | 234 0.7 SW | 232 0.00 0 0.00 34.7 58.0 12/2/18
12/2/18 2000 47.3 72 38.7 0.6 SSW | 211 3.8 S | 182 0.00 0 0.00 34.7 58.0 12/2/18
12/2/18 1900 51.5 62 38.8 2.3 E | 81 5.9 ENE | 58 0.00 0 0.00 34.7 58.0 12/2/18
12/2/18 1800 53.4 59 39.6 4.3 ENE | 59 8.1 ENE | 73 0.00 2 0.00 34.7 58.0 12/2/18
12/2/18 1700 56.2 53 39.1 4.2 NE | 47 8.3 NE | 48 0.00 13 0.00 34.7 58.0 12/2/18
12/2/18 1600 57.3 48 38.1 3.2 NE | 45 7.8 NE | 46 0.00 28 0.00 34.7 58.0 12/2/18
12/2/18 1500 57.2 50 38.5 3.1 NE | 51 7.3 NNE | 19 0.00 34 0.00 34.7 58.0 12/2/18
Tip: Bookmark this page for easy future reference